Time;durP1;ratioP1;P1;durP2;ratioP2;P2;SDS_P1;SDS_P2;PMS_P1;PMS_P2;Temp;Humidity;BMP_temperature;BMP_pressure;BME280_temperature;BME280_humidity;BME280_pressure;Samples;Min_cycle;Max_cycle;Signal;HPM_P1;HPM_P2
2023/07/26 00:00:06;;;;;;;8.20;2.95;;;12.50;99.90;;;;;;5063908;28;20032;-67
2023/07/26 00:02:32;;;;;;;7.93;3.00;;;12.50;99.90;;;;;;5047043;28;20057;-69
2023/07/26 00:04:58;;;;;;;8.30;3.28;;;12.50;99.90;;;;;;5037148;28;20505;-69
2023/07/26 00:07:23;;;;;;;11.10;3.00;;;12.50;99.90;;;;;;5047955;28;20093;-67
2023/07/26 00:09:49;;;;;;;7.85;2.60;;;12.50;99.90;;;;;;5045905;28;20064;-68
2023/07/26 00:12:14;;;;;;;8.18;3.28;;;12.50;99.90;;;;;;5046854;28;20772;-68
2023/07/26 00:14:40;;;;;;;8.68;3.08;;;12.50;99.90;;;;;;5048324;28;20041;-69
2023/07/26 00:17:06;;;;;;;10.35;3.10;;;12.50;99.90;;;;;;5043042;28;20046;-67
2023/07/26 00:19:32;;;;;;;9.90;3.65;;;12.40;99.90;;;;;;5037554;28;20432;-68
2023/07/26 00:21:57;;;;;;;7.40;3.00;;;12.40;99.90;;;;;;5045661;28;20399;-68
2023/07/26 00:24:23;;;;;;;7.32;3.10;;;12.40;99.90;;;;;;5027058;28;20457;-67
2023/07/26 00:26:49;;;;;;;11.45;4.43;;;12.40;99.90;;;;;;5052785;28;20489;-66
2023/07/26 00:29:14;;;;;;;10.55;3.10;;;12.40;99.90;;;;;;5063093;28;20068;-68
2023/07/26 00:31:41;;;;;;;8.52;3.67;;;12.40;99.90;;;;;;5047199;28;20025;-67
2023/07/26 00:34:07;;;;;;;8.43;2.97;;;12.40;99.90;;;;;;5035757;28;20249;-65
2023/07/26 00:36:32;;;;;;;7.60;3.53;;;12.40;99.90;;;;;;5027180;28;20068;-67
2023/07/26 00:38:58;;;;;;;9.77;3.17;;;12.40;99.90;;;;;;5053303;28;20415;-66
2023/07/26 00:41:24;;;;;;;7.70;3.65;;;12.40;99.90;;;;;;5043581;28;20044;-69
2023/07/26 00:43:49;;;;;;;7.97;3.85;;;12.40;99.90;;;;;;5028948;28;20044;-66
2023/07/26 00:46:16;;;;;;;7.75;3.40;;;12.40;99.90;;;;;;5035167;28;20044;-67
2023/07/26 00:48:43;;;;;;;9.48;3.78;;;12.40;99.90;;;;;;5039926;28;20079;-68
2023/07/26 00:51:09;;;;;;;9.75;3.78;;;12.40;99.90;;;;;;5027036;28;20037;-67
2023/07/26 00:53:34;;;;;;;8.63;4.00;;;12.40;99.90;;;;;;5036092;28;20416;-67
2023/07/26 00:56:00;;;;;;;10.20;3.63;;;12.40;99.90;;;;;;5042986;28;20668;-66
2023/07/26 00:58:26;;;;;;;7.47;3.75;;;12.40;99.90;;;;;;5041634;28;20291;-67
2023/07/26 01:00:53;;;;;;;9.18;3.50;;;12.40;99.90;;;;;;5064647;28;20574;-67
2023/07/26 01:03:19;;;;;;;9.07;4.07;;;12.40;99.90;;;;;;5043261;28;20041;-67
2023/07/26 01:06:19;;;;;;;8.75;3.80;;;12.40;99.90;;;;;;5009554;28;20094;-68
2023/07/26 01:09:09;;;;;;;9.90;4.32;;;12.40;99.90;;;;;;5050544;28;20044;-67
2023/07/26 01:11:40;;;;;;;9.25;3.70;;;12.30;99.90;;;;;;5045220;28;20538;-67
2023/07/26 01:14:33;;;;;;;10.00;3.70;;;12.30;99.90;;;;;;5042465;28;20450;-69
2023/07/26 01:16:59;;;;;;;10.63;4.30;;;12.40;99.90;;;;;;5040429;28;20457;-66
2023/07/26 01:19:24;;;;;;;11.02;4.38;;;12.30;99.90;;;;;;5055941;28;20654;-65
2023/07/26 01:21:50;;;;;;;9.23;4.45;;;12.30;99.90;;;;;;5046147;28;20052;-67
2023/07/26 01:24:15;;;;;;;10.98;4.30;;;12.30;99.90;;;;;;5045866;28;20047;-69
2023/07/26 01:26:41;;;;;;;9.85;3.90;;;12.30;99.90;;;;;;5062903;28;20044;-66
2023/07/26 01:29:07;;;;;;;10.52;4.03;;;12.30;99.90;;;;;;5046418;28;20407;-66
2023/07/26 01:31:33;;;;;;;9.27;4.25;;;12.30;99.90;;;;;;5046353;28;20056;-67
2023/07/26 01:34:00;;;;;;;8.18;4.13;;;12.30;99.90;;;;;;5022447;28;20047;-66
2023/07/26 01:36:29;;;;;;;12.15;4.35;;;12.30;99.90;;;;;;5026177;28;20249;-67
2023/07/26 01:38:55;;;;;;;9.77;4.38;;;12.30;99.90;;;;;;5027032;28;20098;-68
2023/07/26 01:41:22;;;;;;;10.63;4.60;;;12.30;99.90;;;;;;5009002;28;20546;-66
2023/07/26 01:43:48;;;;;;;10.02;4.53;;;12.30;99.90;;;;;;5045675;28;20123;-69
2023/07/26 01:46:14;;;;;;;11.02;4.60;;;12.30;99.90;;;;;;5057133;28;20075;-70
2023/07/26 01:48:40;;;;;;;9.48;4.55;;;12.30;99.90;;;;;;5026797;28;20041;-68
2023/07/26 01:51:07;;;;;;;9.85;5.43;;;12.30;99.90;;;;;;5044616;28;20052;-66
2023/07/26 01:53:33;;;;;;;10.65;4.50;;;12.30;99.90;;;;;;5026698;28;20167;-66
2023/07/26 01:56:02;;;;;;;9.07;4.40;;;12.30;99.90;;;;;;5016169;28;20132;-66
2023/07/26 01:58:28;;;;;;;9.77;4.68;;;12.30;99.90;;;;;;5027085;28;20040;-67
2023/07/26 02:00:54;;;;;;;9.85;4.70;;;12.30;99.90;;;;;;5027297;28;20424;-66
2023/07/26 02:03:20;;;;;;;9.60;5.10;;;12.30;99.90;;;;;;5026844;28;20051;-67
2023/07/26 02:05:47;;;;;;;10.95;4.75;;;12.20;99.90;;;;;;5051146;28;20079;-68
2023/07/26 02:08:13;;;;;;;11.23;4.82;;;12.20;99.90;;;;;;5064261;28;20048;-68
2023/07/26 02:10:39;;;;;;;9.25;4.40;;;12.20;99.90;;;;;;5025498;28;20056;-67
2023/07/26 02:13:05;;;;;;;9.23;4.47;;;12.20;99.90;;;;;;5030523;28;20044;-67
2023/07/26 02:15:31;;;;;;;14.98;6.18;;;12.10;99.90;;;;;;5045088;28;20098;-67
2023/07/26 02:17:57;;;;;;;9.57;5.05;;;12.10;99.90;;;;;;5044238;28;20527;-66
2023/07/26 02:20:23;;;;;;;10.10;5.25;;;12.10;99.90;;;;;;5035980;28;20133;-68
2023/07/26 02:22:48;;;;;;;7.80;4.65;;;12.10;99.90;;;;;;5029606;28;20125;-67
2023/07/26 02:25:14;;;;;;;11.02;5.10;;;12.10;99.90;;;;;;5028784;28;20094;-69
2023/07/26 02:27:40;;;;;;;11.77;5.45;;;12.10;99.90;;;;;;5055128;28;20046;-66
2023/07/26 02:30:06;;;;;;;9.57;4.78;;;12.00;99.90;;;;;;5031928;28;20048;-70
2023/07/26 02:32:32;;;;;;;10.48;5.13;;;12.00;99.90;;;;;;5028378;28;20056;-69
2023/07/26 02:34:58;;;;;;;10.63;5.72;;;12.00;99.90;;;;;;5033048;28;20045;-68
2023/07/26 02:37:23;;;;;;;12.98;5.72;;;11.90;99.90;;;;;;5009563;28;20045;-67
2023/07/26 02:39:50;;;;;;;11.50;5.80;;;11.90;99.90;;;;;;5024583;28;20037;-66
2023/07/26 02:42:16;;;;;;;10.80;5.60;;;11.80;99.90;;;;;;5025812;28;20176;-66
2023/07/26 02:44:41;;;;;;;13.35;6.20;;;11.80;99.90;;;;;;5047306;28;20278;-70
2023/07/26 02:47:07;;;;;;;13.57;6.85;;;11.80;99.90;;;;;;5058442;28;20473;-68
2023/07/26 02:49:33;;;;;;;12.57;5.80;;;11.70;99.90;;;;;;5038201;28;20033;-68
2023/07/26 02:51:58;;;;;;;14.68;6.03;;;11.70;99.90;;;;;;5021045;28;20044;-68
2023/07/26 02:54:24;;;;;;;11.82;6.28;;;11.70;99.90;;;;;;5039837;28;20087;-69
2023/07/26 02:56:49;;;;;;;10.98;5.72;;;11.70;99.90;;;;;;5023696;28;20041;-67
2023/07/26 02:59:15;;;;;;;13.57;6.13;;;11.70;99.90;;;;;;5030659;28;20121;-69
2023/07/26 03:01:41;;;;;;;13.98;6.57;;;11.70;99.90;;;;;;5036639;28;20048;-69
2023/07/26 03:04:06;;;;;;;10.45;5.90;;;11.70;99.90;;;;;;5041945;28;20048;-68
2023/07/26 03:06:32;;;;;;;10.82;5.80;;;11.70;99.90;;;;;;5026243;28;20361;-70
2023/07/26 03:08:57;;;;;;;12.88;6.40;;;11.70;99.90;;;;;;5049499;28;20051;-69
2023/07/26 03:11:23;;;;;;;10.52;5.50;;;11.70;99.90;;;;;;5047228;28;20048;-70
2023/07/26 03:13:52;;;;;;;9.95;6.25;;;11.70;99.90;;;;;;5048197;28;20044;-69
2023/07/26 03:16:17;;;;;;;9.88;5.80;;;11.60;99.90;;;;;;5036885;28;20052;-68
2023/07/26 03:18:43;;;;;;;13.20;5.97;;;11.70;99.90;;;;;;5030609;28;20045;-67
2023/07/26 03:21:09;;;;;;;13.35;6.30;;;11.60;99.90;;;;;;5044568;28;20060;-69
2023/07/26 03:23:34;;;;;;;12.07;6.30;;;11.60;99.90;;;;;;5045454;28;20124;-66
2023/07/26 03:26:01;;;;;;;10.43;6.15;;;11.60;99.90;;;;;;5012646;28;20383;-69
2023/07/26 03:28:27;;;;;;;10.93;6.10;;;11.60;99.90;;;;;;5032004;28;20037;-69
2023/07/26 03:30:52;;;;;;;11.93;6.20;;;11.60;99.90;;;;;;5036359;28;20044;-68
2023/07/26 03:33:18;;;;;;;11.13;6.00;;;11.70;99.90;;;;;;5049156;28;20373;-69
2023/07/26 03:35:44;;;;;;;14.35;6.35;;;11.60;99.90;;;;;;5032868;28;20041;-69
2023/07/26 03:38:09;;;;;;;12.20;5.93;;;11.60;99.90;;;;;;5028893;28;20176;-68
2023/07/26 03:40:35;;;;;;;10.30;6.20;;;11.60;99.90;;;;;;5053254;28;20507;-69
2023/07/26 03:43:01;;;;;;;12.60;6.85;;;11.60;99.90;;;;;;5032243;28;20127;-68
2023/07/26 03:45:27;;;;;;;13.25;6.55;;;11.60;99.90;;;;;;5019293;28;20043;-68
2023/07/26 03:47:53;;;;;;;11.75;6.75;;;11.60;99.90;;;;;;5029125;28;20534;-71
2023/07/26 03:50:20;;;;;;;14.40;6.43;;;11.60;99.90;;;;;;5045126;28;20040;-67
2023/07/26 03:52:46;;;;;;;12.95;5.78;;;11.70;99.90;;;;;;5048716;28;20047;-68
2023/07/26 03:55:15;;;;;;;14.40;6.70;;;11.60;99.90;;;;;;5025663;28;20687;-69
2023/07/26 03:57:40;;;;;;;13.43;6.80;;;11.70;99.90;;;;;;5046325;28;20144;-68
2023/07/26 04:00:06;;;;;;;15.70;6.25;;;11.70;99.90;;;;;;5053874;28;20178;-70
2023/07/26 04:02:32;;;;;;;11.45;6.00;;;11.70;99.90;;;;;;5047893;28;20072;-67
2023/07/26 04:05:01;;;;;;;14.25;6.65;;;11.70;99.90;;;;;;5040250;28;20053;-67
2023/07/26 04:07:26;;;;;;;14.35;6.32;;;11.80;99.90;;;;;;5046888;28;20481;-69
2023/07/26 04:09:52;;;;;;;13.13;6.10;;;11.80;99.90;;;;;;5044428;28;20044;-68
2023/07/26 04:12:18;;;;;;;12.10;6.65;;;11.80;99.90;;;;;;5040701;28;20055;-71
2023/07/26 04:14:43;;;;;;;14.15;7.40;;;11.80;99.90;;;;;;5042276;28;20444;-69
2023/07/26 04:17:09;;;;;;;10.95;6.70;;;11.90;99.90;;;;;;5042978;28;20044;-70
2023/07/26 04:19:35;;;;;;;10.73;5.97;;;11.90;99.90;;;;;;5059089;28;20281;-71
2023/07/26 04:22:00;;;;;;;13.20;6.30;;;11.90;99.90;;;;;;5045666;28;20482;-72
2023/07/26 04:24:26;;;;;;;14.27;6.28;;;12.00;99.90;;;;;;5033653;28;20040;-72
2023/07/26 04:26:55;;;;;;;10.73;6.20;;;12.00;99.90;;;;;;5043992;28;20403;-69
2023/07/26 04:29:20;;;;;;;11.18;6.07;;;12.00;99.90;;;;;;5020490;28;20051;-68
2023/07/26 04:31:49;;;;;;;14.60;6.88;;;12.00;99.90;;;;;;5039222;28;20635;-71
2023/07/26 04:34:15;;;;;;;13.82;6.57;;;12.00;99.90;;;;;;5047121;28;20491;-68
2023/07/26 04:36:41;;;;;;;12.65;5.93;;;12.10;99.90;;;;;;5027621;28;20043;-67
2023/07/26 04:39:07;;;;;;;14.85;6.50;;;12.10;99.90;;;;;;5045927;28;20041;-67
2023/07/26 04:41:32;;;;;;;10.98;6.65;;;12.10;99.90;;;;;;5026168;28;20128;-65
2023/07/26 04:43:58;;;;;;;11.60;6.55;;;12.10;99.90;;;;;;5052336;28;20036;-67
2023/07/26 04:46:23;;;;;;;12.10;6.10;;;12.10;99.90;;;;;;5049391;28;20048;-68
2023/07/26 04:48:49;;;;;;;11.45;6.10;;;12.10;99.90;;;;;;5046236;28;20411;-68
2023/07/26 04:51:15;;;;;;;11.73;5.57;;;12.10;99.90;;;;;;5044979;28;20059;-68
2023/07/26 04:53:41;;;;;;;12.70;6.35;;;12.10;99.90;;;;;;5027040;28;20048;-67
2023/07/26 04:56:07;;;;;;;11.90;6.03;;;12.20;99.90;;;;;;5035541;28;20036;-68
2023/07/26 04:58:32;;;;;;;9.98;5.82;;;12.20;99.90;;;;;;5013736;28;20048;-70
2023/07/26 05:00:58;;;;;;;12.35;6.38;;;12.20;99.90;;;;;;5039058;28;20051;-67
2023/07/26 05:03:24;;;;;;;9.60;5.70;;;12.30;99.90;;;;;;5046787;28;20155;-68
2023/07/26 05:05:51;;;;;;;10.25;5.15;;;12.40;99.90;;;;;;5035676;28;20116;-69
2023/07/26 05:08:21;;;;;;;12.23;5.50;;;12.50;99.90;;;;;;5019422;28;20044;-68
2023/07/26 05:10:51;;;;;;;12.35;5.57;;;12.60;99.90;;;;;;5034719;28;20083;-68
2023/07/26 05:13:17;;;;;;;8.43;4.55;;;12.60;99.90;;;;;;5027847;28;20041;-66
2023/07/26 05:15:42;;;;;;;8.57;4.97;;;12.70;99.90;;;;;;5040074;28;20632;-69
2023/07/26 05:18:08;;;;;;;8.57;4.97;;;12.80;99.90;;;;;;5047299;28;20194;-66
2023/07/26 05:20:34;;;;;;;8.82;3.58;;;13.30;99.90;;;;;;5022158;28;20041;-67
2023/07/26 05:22:59;;;;;;;6.70;3.83;;;13.80;99.90;;;;;;5027360;28;20488;-66
2023/07/26 05:25:25;;;;;;;7.38;3.42;;;14.10;99.90;;;;;;5024979;28;20029;-67
2023/07/26 05:27:50;;;;;;;6.80;3.28;;;14.40;99.90;;;;;;5026704;28;20454;-67
2023/07/26 05:30:19;;;;;;;6.25;3.08;;;14.60;99.90;;;;;;5038823;28;20036;-69
2023/07/26 05:32:45;;;;;;;6.72;2.78;;;14.60;99.90;;;;;;5062750;28;20044;-68
2023/07/26 05:35:13;;;;;;;9.95;3.10;;;14.50;99.90;;;;;;5041711;28;20045;-67
2023/07/26 05:37:39;;;;;;;9.63;3.17;;;14.40;99.90;;;;;;5033292;28;20080;-68
2023/07/26 05:40:05;;;;;;;10.57;2.92;;;14.30;99.90;;;;;;5024801;28;20072;-68
2023/07/26 05:42:32;;;;;;;6.45;2.60;;;14.20;99.90;;;;;;5017165;28;20787;-67
2023/07/26 05:45:00;;;;;;;9.10;2.70;;;14.00;99.90;;;;;;5043723;28;20131;-66
2023/07/26 05:47:26;;;;;;;5.32;2.60;;;14.00;99.90;;;;;;5026526;28;20040;-66
2023/07/26 05:49:51;;;;;;;5.57;2.60;;;13.90;99.90;;;;;;5045602;28;20078;-67
2023/07/26 05:52:18;;;;;;;8.70;2.80;;;13.80;99.90;;;;;;5026291;28;20049;-66
2023/07/26 05:54:46;;;;;;;8.52;3.58;;;13.70;99.90;;;;;;5059205;28;20059;-67
2023/07/26 05:57:12;;;;;;;9.40;3.55;;;13.60;99.90;;;;;;5044974;28;20089;-65
2023/07/26 05:59:38;;;;;;;6.78;3.00;;;13.50;99.90;;;;;;5044904;28;20542;-71
2023/07/26 06:02:04;;;;;;;10.15;3.65;;;13.50;99.90;;;;;;5060881;28;20190;-71
2023/07/26 06:04:30;;;;;;;10.55;3.15;;;13.40;99.90;;;;;;5045783;28;20143;-67
2023/07/26 06:06:56;;;;;;;9.68;3.20;;;13.40;99.90;;;;;;5052728;28;20181;-66
2023/07/26 06:09:22;;;;;;;7.03;3.20;;;13.30;99.90;;;;;;5029760;28;20106;-65
2023/07/26 06:11:48;;;;;;;7.43;3.20;;;13.20;99.90;;;;;;5021681;28;20085;-68
2023/07/26 06:14:14;;;;;;;8.10;2.75;;;13.10;99.90;;;;;;5043695;28;20411;-67
2023/07/26 06:16:40;;;;;;;7.47;3.17;;;13.10;99.90;;;;;;5042002;28;20119;-67
2023/07/26 06:19:06;;;;;;;10.25;3.30;;;13.10;99.90;;;;;;5045779;28;20496;-67
2023/07/26 06:21:31;;;;;;;9.55;3.63;;;13.00;99.90;;;;;;5020300;28;20649;-67
2023/07/26 06:23:57;;;;;;;6.30;2.90;;;13.00;99.90;;;;;;5045586;28;20542;-64
2023/07/26 06:26:24;;;;;;;8.23;3.30;;;13.10;99.90;;;;;;5040520;28;20231;-66
2023/07/26 06:28:49;;;;;;;8.98;3.60;;;13.10;99.90;;;;;;5050136;28;20124;-65
2023/07/26 06:31:16;;;;;;;8.65;3.40;;;13.10;99.90;;;;;;5054575;28;20125;-64
2023/07/26 06:33:41;;;;;;;6.75;2.80;;;13.10;99.90;;;;;;5008939;28;20199;-64
2023/07/26 06:36:07;;;;;;;7.40;2.85;;;13.10;99.90;;;;;;5020668;28;20568;-66
2023/07/26 06:38:33;;;;;;;6.60;2.88;;;13.10;99.90;;;;;;5043845;28;20049;-64
2023/07/26 06:40:59;;;;;;;7.50;2.85;;;13.10;99.90;;;;;;5039066;28;20047;-65
2023/07/26 06:43:24;;;;;;;8.98;3.10;;;13.10;99.90;;;;;;5031284;28;20112;-64
2023/07/26 06:45:52;;;;;;;6.45;3.33;;;13.20;99.90;;;;;;5065534;28;20036;-65
2023/07/26 06:48:18;;;;;;;8.23;3.38;;;13.30;99.90;;;;;;5048843;28;20546;-64
2023/07/26 06:50:45;;;;;;;7.25;2.70;;;13.40;99.90;;;;;;5062574;28;20389;-64
2023/07/26 06:53:11;;;;;;;7.38;3.22;;;13.50;99.90;;;;;;5054887;28;20209;-65
2023/07/26 06:55:37;;;;;;;6.43;3.15;;;13.60;99.90;;;;;;5062472;28;20083;-66
2023/07/26 06:58:03;;;;;;;7.68;2.80;;;13.70;99.90;;;;;;5046125;28;20403;-64
2023/07/26 07:00:29;;;;;;;7.53;2.70;;;13.70;99.90;;;;;;5045154;28;20182;-66
2023/07/26 07:02:59;;;;;;;9.40;2.90;;;13.80;99.90;;;;;;5048198;28;20685;-68
2023/07/26 07:05:29;;;;;;;8.88;3.85;;;13.90;99.90;;;;;;5039764;28;20762;-68
2023/07/26 07:07:55;;;;;;;7.82;2.83;;;13.90;99.90;;;;;;5035397;28;20385;-67
2023/07/26 07:10:24;;;;;;;7.07;2.95;;;14.00;99.90;;;;;;5065328;28;20052;-68
2023/07/26 07:12:51;;;;;;;6.90;2.65;;;14.10;99.90;;;;;;5059696;28;20357;-68
2023/07/26 07:15:16;;;;;;;7.38;2.53;;;14.10;99.90;;;;;;5048059;28;20056;-67
2023/07/26 07:17:42;;;;;;;6.50;2.63;;;14.00;99.90;;;;;;5031985;28;20110;-68
2023/07/26 07:20:08;;;;;;;6.05;2.40;;;14.00;99.90;;;;;;5048105;28;20114;-65
2023/07/26 07:22:34;;;;;;;7.65;2.40;;;13.90;99.90;;;;;;5015188;28;20512;-65
2023/07/26 07:25:00;;;;;;;5.97;2.47;;;13.80;99.90;;;;;;5018711;28;20111;-70
2023/07/26 07:27:26;;;;;;;5.00;2.20;;;13.80;99.90;;;;;;5028979;28;20048;-70
2023/07/26 07:29:52;;;;;;;7.45;3.10;;;13.70;99.90;;;;;;5022478;28;20041;-67
2023/07/26 07:32:17;;;;;;;5.85;2.70;;;13.60;99.90;;;;;;5044161;28;20044;-72
2023/07/26 07:34:44;;;;;;;7.43;2.85;;;13.60;99.90;;;;;;5048471;28;20443;-64
2023/07/26 07:37:09;;;;;;;7.45;2.80;;;13.60;99.90;;;;;;5034627;28;20036;-71
2023/07/26 07:39:36;;;;;;;7.45;2.92;;;13.50;99.90;;;;;;5036202;28;20683;-72
2023/07/26 07:42:02;;;;;;;8.43;3.30;;;13.50;99.90;;;;;;5054274;28;20044;-70
2023/07/26 07:44:28;;;;;;;8.35;2.78;;;13.50;99.90;;;;;;5034919;28;20534;-71
2023/07/26 07:46:54;;;;;;;7.88;3.30;;;13.50;99.90;;;;;;5058369;28;20468;-68
2023/07/26 07:49:20;;;;;;;5.70;2.45;;;13.50;99.90;;;;;;5048047;28;20044;-69
2023/07/26 07:51:46;;;;;;;5.55;2.20;;;13.50;99.90;;;;;;5022378;28;20515;-68
2023/07/26 07:54:12;;;;;;;7.18;2.92;;;13.40;99.90;;;;;;5012278;28;20175;-67
2023/07/26 07:56:38;;;;;;;7.47;3.00;;;13.40;99.90;;;;;;5026625;28;20195;-69
2023/07/26 07:59:03;;;;;;;6.97;2.92;;;13.40;99.90;;;;;;5028751;28;20561;-68
2023/07/26 08:01:29;;;;;;;6.45;2.95;;;13.50;99.90;;;;;;5047281;28;20037;-70
2023/07/26 08:03:54;;;;;;;7.18;2.97;;;13.60;99.90;;;;;;5028291;28;20116;-71
2023/07/26 08:06:20;;;;;;;7.15;3.22;;;13.80;99.90;;;;;;5027455;28;20040;-66
2023/07/26 08:08:46;;;;;;;7.28;3.15;;;13.90;99.90;;;;;;5028578;28;20088;-69
2023/07/26 08:11:11;;;;;;;7.70;3.33;;;14.10;99.90;;;;;;5026853;28;20132;-69
2023/07/26 08:13:37;;;;;;;7.13;3.60;;;14.20;99.90;;;;;;5030649;28;20230;-72
2023/07/26 08:16:03;;;;;;;9.07;3.60;;;14.40;99.90;;;;;;5044799;28;20036;-70
2023/07/26 08:18:29;;;;;;;7.13;3.50;;;14.50;99.90;;;;;;5027799;28;20353;-72
2023/07/26 08:20:54;;;;;;;9.10;3.60;;;14.70;99.90;;;;;;5042482;28;20200;-72
2023/07/26 08:23:20;;;;;;;5.22;2.08;;;14.80;99.90;;;;;;5011106;28;20072;-69
2023/07/26 08:25:46;;;;;;;5.97;2.25;;;14.90;99.90;;;;;;5026261;28;20554;-67
2023/07/26 08:28:11;;;;;;;5.40;2.40;;;14.90;99.90;;;;;;5028070;28;20749;-72
2023/07/26 08:30:37;;;;;;;5.10;2.10;;;14.90;99.90;;;;;;5046259;28;20044;-67
2023/07/26 08:33:03;;;;;;;5.00;1.90;;;14.90;99.90;;;;;;5030077;28;20447;-67
2023/07/26 08:35:29;;;;;;;4.88;2.10;;;14.90;99.90;;;;;;5029241;28;20707;-68
2023/07/26 08:37:55;;;;;;;8.90;2.15;;;14.90;99.90;;;;;;5031240;28;20041;-71
2023/07/26 08:40:21;;;;;;;4.72;1.63;;;15.00;99.90;;;;;;5009423;28;20047;-67
2023/07/26 08:42:47;;;;;;;3.72;1.58;;;15.00;99.90;;;;;;5019647;28;20592;-69
2023/07/26 08:45:13;;;;;;;5.07;1.80;;;15.00;99.90;;;;;;5027297;28;20041;-67
2023/07/26 08:47:39;;;;;;;7.22;2.42;;;15.20;99.90;;;;;;5030409;28;20047;-70
2023/07/26 08:50:07;;;;;;;5.03;1.85;;;15.30;99.90;;;;;;5047068;28;20044;-67
2023/07/26 08:52:33;;;;;;;4.45;1.92;;;15.40;99.90;;;;;;5030025;28;20455;-70
2023/07/26 08:55:00;;;;;;;3.95;1.70;;;15.40;99.90;;;;;;5028392;28;20052;-68
2023/07/26 08:57:26;;;;;;;4.35;2.10;;;15.30;99.90;;;;;;5035757;28;20080;-65
2023/07/26 08:59:52;;;;;;;4.47;1.98;;;15.30;99.90;;;;;;5058121;28;20037;-67
2023/07/26 09:02:19;;;;;;;7.57;2.47;;;15.20;99.90;;;;;;5036575;28;20071;-68
2023/07/26 09:04:47;;;;;;;6.47;2.42;;;15.10;99.90;;;;;;5029440;28;20515;-64
2023/07/26 09:07:13;;;;;;;6.97;2.20;;;15.10;99.90;;;;;;5056127;28;20084;-67
2023/07/26 09:09:39;;;;;;;6.40;2.05;;;15.10;99.90;;;;;;5031275;28;20040;-66
2023/07/26 09:12:06;;;;;;;5.20;2.28;;;15.20;99.90;;;;;;5055742;28;20044;-67
2023/07/26 09:14:33;;;;;;;5.63;2.10;;;15.30;99.90;;;;;;5036218;28;20161;-65
2023/07/26 09:17:01;;;;;;;6.63;2.90;;;15.40;99.90;;;;;;5039584;28;20045;-67
2023/07/26 09:19:29;;;;;;;6.10;2.40;;;15.50;99.90;;;;;;5031205;28;20143;-63
2023/07/26 09:21:59;;;;;;;7.60;2.63;;;15.60;99.90;;;;;;5041047;28;20029;-70
2023/07/26 09:24:34;;;;;;;6.75;2.35;;;15.70;99.90;;;;;;5046154;28;20109;-66
2023/07/26 09:27:08;;;;;;;6.07;2.63;;;15.80;99.90;;;;;;5022366;28;20079;-66
2023/07/26 09:29:35;;;;;;;6.28;2.60;;;15.80;99.90;;;;;;5027210;28;20045;-67
2023/07/26 09:32:01;;;;;;;5.32;2.42;;;16.00;99.90;;;;;;5029390;28;20032;-67
2023/07/26 09:34:29;;;;;;;5.63;2.22;;;16.30;99.90;;;;;;5045979;28;20045;-68
2023/07/26 09:36:56;;;;;;;6.15;2.28;;;16.60;99.90;;;;;;5041478;28;20115;-72
2023/07/26 09:39:26;;;;;;;6.20;2.63;;;16.70;99.90;;;;;;5010342;28;20136;-68
2023/07/26 09:42:06;;;;;;;5.32;2.30;;;16.70;99.90;;;;;;5041634;28;20138;-67
2023/07/26 09:44:33;;;;;;;6.10;2.70;;;16.80;99.90;;;;;;5043724;28;20048;-67
2023/07/26 09:46:59;;;;;;;8.07;2.58;;;16.70;99.90;;;;;;5016981;28;20032;-69
2023/07/26 09:49:29;;;;;;;6.10;2.92;;;16.60;99.90;;;;;;5026672;28;20048;-67
2023/07/26 09:51:57;;;;;;;6.35;2.38;;;16.60;99.90;;;;;;5026488;28;20040;-67
2023/07/26 09:54:28;;;;;;;7.22;2.70;;;16.50;99.90;;;;;;5026467;28;20045;-70
2023/07/26 09:56:55;;;;;;;7.60;2.47;;;16.60;99.90;;;;;;5048804;28;20036;-64
2023/07/26 09:59:25;;;;;;;5.50;2.25;;;16.70;99.90;;;;;;5031353;28;20041;-64
2023/07/26 10:01:52;;;;;;;8.18;2.42;;;16.80;99.90;;;;;;5034037;28;20514;-68
2023/07/26 10:04:47;;;;;;;6.47;2.40;;;16.80;99.90;;;;;;5026220;28;20099;-69
2023/07/26 10:07:14;;;;;;;7.88;2.42;;;16.80;99.90;;;;;;5027164;28;20500;-68
2023/07/26 10:09:43;;;;;;;6.70;2.33;;;16.80;99.90;;;;;;5044616;28;20102;-68
2023/07/26 10:12:09;;;;;;;7.53;2.63;;;16.40;99.90;;;;;;5025073;28;20044;-66
2023/07/26 10:14:36;;;;;;;9.52;3.70;;;15.70;99.90;;;;;;5054003;28;20033;-63
2023/07/26 10:17:03;;;;;;;11.55;4.00;;;15.30;99.90;;;;;;5044996;28;20124;-67
2023/07/26 10:19:30;;;;;;;10.75;3.45;;;15.10;99.90;;;;;;5035262;28;20135;-66
2023/07/26 10:21:57;;;;;;;8.52;3.55;;;14.90;99.90;;;;;;5046902;28;20123;-62
2023/07/26 10:24:24;;;;;;;9.43;3.85;;;14.80;99.90;;;;;;5048005;28;20084;-65
2023/07/26 10:26:52;;;;;;;7.25;3.65;;;14.80;99.90;;;;;;5011586;28;20076;-68
2023/07/26 10:29:19;;;;;;;7.03;3.70;;;14.70;99.90;;;;;;5022043;28;20075;-67
2023/07/26 10:31:46;;;;;;;7.93;4.20;;;14.80;99.90;;;;;;5067251;28;20495;-66
2023/07/26 10:34:19;;;;;;;9.30;3.55;;;14.90;99.90;;;;;;5013349;28;20041;-67
2023/07/26 10:36:45;;;;;;;7.38;3.50;;;15.00;99.90;;;;;;5029646;28;20060;-67
2023/07/26 10:39:12;;;;;;;7.80;3.47;;;15.20;99.90;;;;;;5031474;28;20037;-66
2023/07/26 10:41:47;;;;;;;8.50;3.83;;;15.40;99.90;;;;;;5066139;28;20045;-64
2023/07/26 10:44:15;;;;;;;6.85;3.40;;;15.60;99.90;;;;;;5048604;28;20040;-68
2023/07/26 10:46:53;;;;;;;8.45;3.42;;;15.70;99.90;;;;;;5032186;28;20135;-71
2023/07/26 10:49:33;;;;;;;7.13;2.80;;;15.90;99.90;;;;;;5067962;28;20112;-67
2023/07/26 10:52:02;;;;;;;5.35;2.60;;;16.00;99.90;;;;;;5047691;28;20079;-65
2023/07/26 10:54:46;;;;;;;5.40;2.45;;;16.20;99.90;;;;;;5029209;28;20045;-62
2023/07/26 10:57:26;;;;;;;6.93;2.70;;;16.30;99.90;;;;;;5028502;28;20470;-67
2023/07/26 11:00:04;;;;;;;5.35;2.40;;;16.30;99.90;;;;;;5031287;28;20080;-65
2023/07/26 11:02:48;;;;;;;6.38;2.90;;;16.20;99.90;;;;;;5013572;28;20064;-66
2023/07/26 11:05:19;;;;;;;4.80;1.90;;;16.30;99.90;;;;;;5021913;28;20040;-66
2023/07/26 11:08:06;;;;;;;4.85;1.75;;;16.50;99.90;;;;;;5067482;28;20282;-69
2023/07/26 11:10:37;;;;;;;4.85;1.90;;;16.60;99.90;;;;;;5030805;28;20423;-68
2023/07/26 11:13:26;;;;;;;5.80;2.28;;;16.70;99.90;;;;;;5066536;28;20055;-69
2023/07/26 11:15:51;;;;;;;4.90;2.10;;;16.70;99.90;;;;;;5048344;28;20049;-68
2023/07/26 11:18:19;;;;;;;6.60;2.10;;;16.70;99.90;;;;;;5056367;28;20064;-70
2023/07/26 11:20:48;;;;;;;5.80;2.42;;;16.70;99.90;;;;;;5044010;28;20522;-66
2023/07/26 11:23:18;;;;;;;7.40;2.10;;;16.70;99.90;;;;;;5022567;28;20099;-66
2023/07/26 11:25:48;;;;;;;5.95;2.20;;;16.80;99.90;;;;;;5027926;28;20143;-67
2023/07/26 11:28:15;;;;;;;5.00;1.70;;;16.80;99.90;;;;;;5046879;28;20223;-67
2023/07/26 11:30:52;;;;;;;4.93;1.05;;;16.80;99.90;;;;;;5047225;28;20076;-68
2023/07/26 11:33:31;;;;;;;2.45;0.88;;;16.50;99.90;;;;;;5056666;28;20049;-69
2023/07/26 11:35:59;;;;;;;4.90;1.20;;;16.10;99.90;;;;;;5012285;28;20049;-69
2023/07/26 11:38:25;;;;;;;4.28;1.00;;;15.70;99.90;;;;;;5021436;28;20049;-65
2023/07/26 11:40:56;;;;;;;2.50;0.90;;;15.40;99.90;;;;;;5027226;28;20667;-73
2023/07/26 11:43:23;;;;;;;4.13;1.20;;;15.30;99.90;;;;;;5028595;28;20033;-65
2023/07/26 11:45:52;;;;;;;4.93;1.30;;;15.10;99.90;;;;;;5063016;28;20102;-64
2023/07/26 11:48:18;;;;;;;5.53;1.33;;;15.10;99.90;;;;;;5030240;28;20144;-64
2023/07/26 11:50:44;;;;;;;3.70;1.20;;;14.90;99.90;;;;;;5048857;28;20028;-64
2023/07/26 11:53:12;;;;;;;4.93;1.60;;;14.80;99.90;;;;;;5040414;28;20041;-70
2023/07/26 11:55:39;;;;;;;6.30;1.50;;;14.70;99.90;;;;;;5049510;28;20060;-65
2023/07/26 11:58:08;;;;;;;4.90;1.65;;;14.60;99.90;;;;;;5041333;28;20106;-68
2023/07/26 12:00:43;;;;;;;7.13;1.65;;;14.50;99.90;;;;;;5063667;28;20695;-68
2023/07/26 12:03:10;;;;;;;3.45;1.10;;;14.50;99.90;;;;;;5044699;28;20045;-67
2023/07/26 12:05:42;;;;;;;4.47;1.60;;;14.40;99.90;;;;;;5027572;28;20036;-67
2023/07/26 12:08:08;;;;;;;5.20;1.52;;;14.30;99.90;;;;;;5028535;28;20032;-64
2023/07/26 12:10:37;;;;;;;6.25;1.63;;;14.30;99.90;;;;;;5021079;28;20654;-68
2023/07/26 12:13:08;;;;;;;4.63;1.67;;;14.20;99.90;;;;;;5027420;28;20037;-67
2023/07/26 12:15:54;;;;;;;4.72;1.73;;;14.10;99.90;;;;;;5028881;28;20709;-67
2023/07/26 12:18:21;;;;;;;9.18;2.25;;;14.00;99.90;;;;;;5044875;28;20049;-67
2023/07/26 12:20:58;;;;;;;5.05;2.00;;;13.90;99.90;;;;;;5043072;28;20036;-64
2023/07/26 12:23:28;;;;;;;7.10;3.08;;;13.90;99.90;;;;;;5034354;28;20041;-63
2023/07/26 12:26:01;;;;;;;7.38;2.30;;;13.90;99.90;;;;;;5042412;28;20037;-62
2023/07/26 12:28:27;;;;;;;7.10;2.30;;;13.90;99.90;;;;;;5044580;28;20553;-62
2023/07/26 12:30:53;;;;;;;8.75;2.78;;;13.90;99.90;;;;;;5030744;28;20036;-63
2023/07/26 12:33:19;;;;;;;9.70;3.00;;;14.00;99.90;;;;;;5058472;28;20134;-63
2023/07/26 12:35:45;;;;;;;7.75;2.90;;;14.20;99.90;;;;;;5027524;28;20146;-64
2023/07/26 12:38:17;;;;;;;6.93;2.60;;;14.40;99.90;;;;;;5046535;28;20512;-64
2023/07/26 12:40:44;;;;;;;7.03;2.70;;;14.70;99.90;;;;;;5044983;28;20044;-65
2023/07/26 12:43:28;;;;;;;8.00;2.60;;;14.90;99.90;;;;;;5042309;28;20576;-65